sensor_id;sensor_type;location;lat;lon;timestamp;pressure;altitude;pressure_sealevel;temperature;humidity
47240;BME280;32978;53.586;10.052;2023-04-02T00:15:27;101535.78;;;0.51;100.00
47240;BME280;32978;53.586;10.052;2023-04-02T00:20:24;101541.84;;;0.47;100.00
47240;BME280;32978;53.586;10.052;2023-04-02T00:25:25;101548.16;;;0.52;100.00
47240;BME280;32978;53.586;10.052;2023-04-02T00:30:22;101558.13;;;0.52;100.00
47240;BME280;32978;53.586;10.052;2023-04-02T00:35:25;101559.84;;;0.46;100.00
47240;BME280;32978;53.586;10.052;2023-04-02T00:40:27;101563.69;;;0.38;100.00
47240;BME280;32978;53.586;10.052;2023-04-02T00:45:34;101571.53;;;0.40;100.00
47240;BME280;32978;53.586;10.052;2023-04-02T00:50:34;101581.09;;;0.36;100.00
47240;BME280;32978;53.586;10.052;2023-04-02T00:55:38;101585.88;;;0.34;100.00
47240;BME280;32978;53.586;10.052;2023-04-02T01:00:35;101602.16;;;0.39;100.00
47240;BME280;32978;53.586;10.052;2023-04-02T01:05:35;101602.25;;;0.32;100.00
47240;BME280;32978;53.586;10.052;2023-04-02T01:15:50;101627.91;;;0.35;100.00
47240;BME280;32978;53.586;10.052;2023-04-02T01:26:22;101636.09;;;0.40;100.00
47240;BME280;32978;53.586;10.052;2023-04-02T01:31:22;101646.78;;;0.47;100.00
47240;BME280;32978;53.586;10.052;2023-04-02T01:36:40;101647.91;;;0.39;100.00
47240;BME280;32978;53.586;10.052;2023-04-02T01:41:46;101652.44;;;0.57;100.00
47240;BME280;32978;53.586;10.052;2023-04-02T01:46:47;101665.75;;;0.52;100.00
47240;BME280;32978;53.586;10.052;2023-04-02T01:51:49;101672.06;;;0.57;100.00
47240;BME280;32978;53.586;10.052;2023-04-02T01:56:48;101679.88;;;0.47;100.00
47240;BME280;32978;53.586;10.052;2023-04-02T02:07:18;101697.38;;;0.38;100.00
47240;BME280;32978;53.586;10.052;2023-04-02T02:12:15;101709.34;;;0.42;100.00
47240;BME280;32978;53.586;10.052;2023-04-02T02:17:15;101718.31;;;0.36;100.00
47240;BME280;32978;53.586;10.052;2023-04-02T02:32:21;101727.72;;;0.27;100.00
47240;BME280;32978;53.586;10.052;2023-04-02T02:37:23;101741.63;;;0.24;100.00
47240;BME280;32978;53.586;10.052;2023-04-02T02:42:31;101746.41;;;0.22;100.00
47240;BME280;32978;53.586;10.052;2023-04-02T02:47:33;101756.03;;;0.11;100.00
47240;BME280;32978;53.586;10.052;2023-04-02T02:52:34;101765.97;;;0.10;100.00
47240;BME280;32978;53.586;10.052;2023-04-02T02:57:37;101771.81;;;0.07;100.00
47240;BME280;32978;53.586;10.052;2023-04-02T03:02:36;101786.28;;;0.06;100.00
47240;BME280;32978;53.586;10.052;2023-04-02T03:07:34;101785.06;;;0.02;100.00
47240;BME280;32978;53.586;10.052;2023-04-02T03:18:01;101807.91;;;-0.07;100.00
47240;BME280;32978;53.586;10.052;2023-04-02T03:23:12;101817.47;;;-0.11;100.00
47240;BME280;32978;53.586;10.052;2023-04-02T03:28:19;101826.56;;;-0.12;100.00
47240;BME280;32978;53.586;10.052;2023-04-02T03:33:22;101838.56;;;-0.15;100.00
47240;BME280;32978;53.586;10.052;2023-04-02T03:38:35;101845.38;;;-0.12;100.00
47240;BME280;32978;53.586;10.052;2023-04-02T03:43:39;101847.66;;;-0.09;100.00
47240;BME280;32978;53.586;10.052;2023-04-02T03:48:41;101864.09;;;0.01;100.00
47240;BME280;32978;53.586;10.052;2023-04-02T03:53:41;101869.53;;;-0.06;100.00
47240;BME280;32978;53.586;10.052;2023-04-02T03:58:48;101869.38;;;-0.11;100.00
47240;BME280;32978;53.586;10.052;2023-04-02T04:03:49;101881.22;;;-0.18;100.00
47240;BME280;32978;53.586;10.052;2023-04-02T04:08:52;101892.13;;;-0.13;100.00
47240;BME280;32978;53.586;10.052;2023-04-02T04:19:05;101914.66;;;-0.14;100.00
47240;BME280;32978;53.586;10.052;2023-04-02T04:24:22;101920.31;;;-0.23;100.00
47240;BME280;32978;53.586;10.052;2023-04-02T04:34:44;101937.06;;;-0.20;100.00
47240;BME280;32978;53.586;10.052;2023-04-02T04:40:00;101944.50;;;-0.23;100.00
47240;BME280;32978;53.586;10.052;2023-04-02T04:50:27;101960.50;;;-0.03;100.00
47240;BME280;32978;53.586;10.052;2023-04-02T04:55:34;101967.50;;;0.05;100.00
47240;BME280;32978;53.586;10.052;2023-04-02T05:05:51;101985.88;;;0.40;100.00
47240;BME280;32978;53.586;10.052;2023-04-02T05:11:14;101993.41;;;0.56;100.00
47240;BME280;32978;53.586;10.052;2023-04-02T05:16:23;102009.88;;;0.67;100.00
47240;BME280;32978;53.586;10.052;2023-04-02T05:21:31;102007.84;;;0.87;100.00
47240;BME280;32978;53.586;10.052;2023-04-02T05:26:35;102016.03;;;0.99;100.00
47240;BME280;32978;53.586;10.052;2023-04-02T05:31:43;102033.59;;;1.01;100.00
47240;BME280;32978;53.586;10.052;2023-04-02T05:36:44;102037.66;;;1.11;100.00
47240;BME280;32978;53.586;10.052;2023-04-02T05:41:43;102043.03;;;1.11;100.00
47240;BME280;32978;53.586;10.052;2023-04-02T05:47:09;102046.97;;;1.33;100.00
47240;BME280;32978;53.586;10.052;2023-04-02T05:52:12;102050.81;;;1.44;100.00
47240;BME280;32978;53.586;10.052;2023-04-02T05:57:15;102052.06;;;1.41;100.00
47240;BME280;32978;53.586;10.052;2023-04-02T06:02:26;102068.09;;;1.55;100.00
47240;BME280;32978;53.586;10.052;2023-04-02T06:07:32;102078.19;;;1.59;100.00
47240;BME280;32978;53.586;10.052;2023-04-02T06:12:47;102075.16;;;1.74;100.00
47240;BME280;32978;53.586;10.052;2023-04-02T06:17:51;102096.69;;;1.93;100.00
47240;BME280;32978;53.586;10.052;2023-04-02T06:22:51;102106.59;;;1.99;100.00
47240;BME280;32978;53.586;10.052;2023-04-02T06:27:52;102104.47;;;2.01;100.00
47240;BME280;32978;53.586;10.052;2023-04-02T06:32:50;102116.91;;;2.02;100.00
47240;BME280;32978;53.586;10.052;2023-04-02T06:37:48;102121.13;;;1.98;100.00
47240;BME280;32978;53.586;10.052;2023-04-02T06:42:48;102140.63;;;2.00;100.00
47240;BME280;32978;53.586;10.052;2023-04-02T06:47:49;102142.25;;;2.01;100.00
47240;BME280;32978;53.586;10.052;2023-04-02T06:52:49;102156.13;;;2.04;100.00
47240;BME280;32978;53.586;10.052;2023-04-02T06:57:47;102162.94;;;2.07;100.00
47240;BME280;32978;53.586;10.052;2023-04-02T07:02:43;102161.06;;;2.26;100.00
47240;BME280;32978;53.586;10.052;2023-04-02T07:07:40;102164.63;;;2.38;100.00
47240;BME280;32978;53.586;10.052;2023-04-02T07:12:37;102170.41;;;2.42;100.00
47240;BME280;32978;53.586;10.052;2023-04-02T07:17:33;102173.25;;;2.47;100.00
47240;BME280;32978;53.586;10.052;2023-04-02T07:22:30;102181.19;;;2.60;100.00
47240;BME280;32978;53.586;10.052;2023-04-02T07:27:26;102186.25;;;2.68;100.00
47240;BME280;32978;53.586;10.052;2023-04-02T07:32:23;102198.47;;;2.71;100.00
47240;BME280;32978;53.586;10.052;2023-04-02T07:37:19;102209.41;;;2.76;100.00
47240;BME280;32978;53.586;10.052;2023-04-02T07:42:15;102219.69;;;2.86;100.00
47240;BME280;32978;53.586;10.052;2023-04-02T07:47:13;102224.88;;;2.99;100.00
47240;BME280;32978;53.586;10.052;2023-04-02T07:52:10;102225.16;;;3.09;100.00
47240;BME280;32978;53.586;10.052;2023-04-02T07:57:07;102238.69;;;3.21;100.00
47240;BME280;32978;53.586;10.052;2023-04-02T08:02:03;102236.25;;;3.43;100.00
47240;BME280;32978;53.586;10.052;2023-04-02T08:07:01;102251.25;;;3.57;100.00
47240;BME280;32978;53.586;10.052;2023-04-02T08:11:58;102259.38;;;3.81;100.00
47240;BME280;32978;53.586;10.052;2023-04-02T08:16:54;102259.13;;;3.94;100.00
47240;BME280;32978;53.586;10.052;2023-04-02T08:21:51;102261.59;;;4.19;100.00
47240;BME280;32978;53.586;10.052;2023-04-02T08:26:49;102264.50;;;4.41;100.00
47240;BME280;32978;53.586;10.052;2023-04-02T08:31:48;102274.53;;;4.81;100.00
47240;BME280;32978;53.586;10.052;2023-04-02T08:36:45;102275.78;;;5.19;100.00
47240;BME280;32978;53.586;10.052;2023-04-02T08:47:16;102289.97;;;4.81;100.00
47240;BME280;32978;53.586;10.052;2023-04-02T08:52:22;102298.06;;;4.93;100.00
47240;BME280;32978;53.586;10.052;2023-04-02T09:02:40;102314.81;;;5.18;100.00
47240;BME280;32978;53.586;10.052;2023-04-02T09:07:38;102326.25;;;5.20;100.00
47240;BME280;32978;53.586;10.052;2023-04-02T09:12:35;102331.06;;;5.47;100.00
47240;BME280;32978;53.586;10.052;2023-04-02T09:17:31;102335.69;;;5.63;100.00
47240;BME280;32978;53.586;10.052;2023-04-02T09:22:46;102329.66;;;5.90;100.00
47240;BME280;32978;53.586;10.052;2023-04-02T09:27:47;102341.25;;;6.02;100.00
47240;BME280;32978;53.586;10.052;2023-04-02T09:32:52;102340.19;;;6.03;100.00
47240;BME280;32978;53.586;10.052;2023-04-02T09:43:15;102358.44;;;6.42;100.00
47240;BME280;32978;53.586;10.052;2023-04-02T09:48:28;102356.13;;;6.50;100.00
47240;BME280;32978;53.586;10.052;2023-04-02T09:53:33;102370.50;;;6.90;100.00
47240;BME280;32978;53.586;10.052;2023-04-02T09:58:29;102376.06;;;7.00;100.00
47240;BME280;32978;53.586;10.052;2023-04-02T10:03:27;102375.09;;;7.33;100.00
47240;BME280;32978;53.586;10.052;2023-04-02T10:08:25;102378.50;;;8.05;100.00
47240;BME280;32978;53.586;10.052;2023-04-02T10:13:27;102391.09;;;8.11;100.00
47240;BME280;32978;53.586;10.052;2023-04-02T10:23:39;102395.81;;;9.16;100.00
47240;BME280;32978;53.586;10.052;2023-04-02T10:28:54;102406.97;;;9.10;100.00
47240;BME280;32978;53.586;10.052;2023-04-02T10:34:08;102414.31;;;10.03;100.00
47240;BME280;32978;53.586;10.052;2023-04-02T10:39:42;102423.59;;;11.83;100.00
47240;BME280;32978;53.586;10.052;2023-04-02T10:44:56;102430.44;;;11.41;100.00
47240;BME280;32978;53.586;10.052;2023-04-02T10:55:27;102461.34;;;12.02;100.00
47240;BME280;32978;53.586;10.052;2023-04-02T11:00:26;102457.28;;;11.94;89.63
47240;BME280;32978;53.586;10.052;2023-04-02T11:05:34;102466.88;;;12.60;88.65
47240;BME280;32978;53.586;10.052;2023-04-02T11:10:44;102468.88;;;12.83;86.11
47240;BME280;32978;53.586;10.052;2023-04-02T11:15:41;102476.19;;;11.95;91.77
47240;BME280;32978;53.586;10.052;2023-04-02T11:25:46;102480.06;;;11.84;93.75
47240;BME280;32978;53.586;10.052;2023-04-02T11:30:46;102488.78;;;11.96;86.42
47240;BME280;32978;53.586;10.052;2023-04-02T11:35:43;102484.75;;;12.87;83.46
47240;BME280;32978;53.586;10.052;2023-04-02T11:40:49;102494.84;;;14.06;73.77
47240;BME280;32978;53.586;10.052;2023-04-02T11:45:52;102505.66;;;14.17;67.07
47240;BME280;32978;53.586;10.052;2023-04-02T11:50:50;102509.50;;;14.86;67.86
47240;BME280;32978;53.586;10.052;2023-04-02T12:01:33;102519.72;;;15.00;66.18
47240;BME280;32978;53.586;10.052;2023-04-02T12:11:32;102533.63;;;14.24;68.59
47240;BME280;32978;53.586;10.052;2023-04-02T12:16:32;102550.06;;;15.27;63.35
47240;BME280;32978;53.586;10.052;2023-04-02T12:21:30;102559.03;;;15.74;57.34
47240;BME280;32978;53.586;10.052;2023-04-02T12:26:30;103039.06;;;15.40;54.69
47240;BME280;32978;53.586;10.052;2023-04-02T12:31:27;102550.63;;;15.93;55.71
47240;BME280;32978;53.586;10.052;2023-04-02T12:36:25;102551.47;;;15.39;59.15
47240;BME280;32978;53.586;10.052;2023-04-02T12:41:24;102548.72;;;18.39;57.43
47240;BME280;32978;53.586;10.052;2023-04-02T12:46:22;102538.84;;;16.38;56.33
47240;BME280;32978;53.586;10.052;2023-04-02T12:51:21;102545.72;;;16.04;61.97
47240;BME280;32978;53.586;10.052;2023-04-02T12:56:19;102552.19;;;17.61;58.80
47240;BME280;32978;53.586;10.052;2023-04-02T13:01:19;102562.16;;;17.79;51.34
47240;BME280;32978;53.586;10.052;2023-04-02T13:06:20;102564.19;;;18.40;48.20
47240;BME280;32978;53.586;10.052;2023-04-02T13:11:17;102568.56;;;18.58;51.08
47240;BME280;32978;53.586;10.052;2023-04-02T13:26:19;102591.97;;;16.80;53.51
47240;BME280;32978;53.586;10.052;2023-04-02T13:31:17;102589.78;;;18.37;49.56
47240;BME280;32978;53.586;10.052;2023-04-02T13:36:14;102586.00;;;18.06;47.22
47240;BME280;32978;53.586;10.052;2023-04-02T13:41:18;102584.53;;;19.43;41.65
47240;BME280;32978;53.586;10.052;2023-04-02T13:46:20;102577.06;;;18.36;40.73
47240;BME280;32978;53.586;10.052;2023-04-02T13:51:20;102585.03;;;17.54;52.22
47240;BME280;32978;53.586;10.052;2023-04-02T13:56:17;102585.38;;;18.62;41.88
47240;BME280;32978;53.586;10.052;2023-04-02T14:01:14;102595.16;;;17.67;51.86
47240;BME280;32978;53.586;10.052;2023-04-02T14:06:36;102602.97;;;17.65;54.67
47240;BME280;32978;53.586;10.052;2023-04-02T14:16:58;102610.88;;;19.20;48.04
47240;BME280;32978;53.586;10.052;2023-04-02T14:22:03;102611.84;;;15.82;53.97
47240;BME280;32978;53.586;10.052;2023-04-02T14:27:21;102624.84;;;16.31;60.09
47240;BME280;32978;53.586;10.052;2023-04-02T14:47:38;102651.06;;;13.56;75.12
47240;BME280;32978;53.586;10.052;2023-04-02T14:52:40;102667.00;;;11.91;80.87
47240;BME280;32978;53.586;10.052;2023-04-02T14:57:44;102664.88;;;13.99;83.09
47240;BME280;32978;53.586;10.052;2023-04-02T15:02:50;102672.97;;;12.63;84.73
47240;BME280;32978;53.586;10.052;2023-04-02T15:07:54;102680.47;;;11.72;87.90
47240;BME280;32978;53.586;10.052;2023-04-02T15:12:54;102674.44;;;11.65;90.44
47240;BME280;32978;53.586;10.052;2023-04-02T15:17:51;102673.13;;;11.22;85.67
47240;BME280;32978;53.586;10.052;2023-04-02T15:38:23;102697.03;;;13.16;81.45
47240;BME280;32978;53.586;10.052;2023-04-02T15:43:29;102691.94;;;14.35;72.51
47240;BME280;32978;53.586;10.052;2023-04-02T15:48:50;102706.56;;;15.11;65.90
47240;BME280;32978;53.586;10.052;2023-04-02T15:54:16;102717.88;;;12.18;72.04
47240;BME280;32978;53.586;10.052;2023-04-02T15:59:36;102709.59;;;13.28;74.26
47240;BME280;32978;53.586;10.052;2023-04-02T16:10:18;102719.53;;;12.79;65.29
47240;BME280;32978;53.586;10.052;2023-04-02T16:20:59;102732.13;;;12.25;74.41
47240;BME280;32978;53.586;10.052;2023-04-02T16:26:02;102742.19;;;13.00;70.27
47240;BME280;32978;53.586;10.052;2023-04-02T16:31:21;102753.31;;;12.04;71.28
47240;BME280;32978;53.586;10.052;2023-04-02T16:36:34;102754.56;;;12.42;66.68
47240;BME280;32978;53.586;10.052;2023-04-02T16:52:48;102783.41;;;10.86;76.00
47240;BME280;32978;53.586;10.052;2023-04-02T16:58:12;102797.66;;;10.30;76.64
47240;BME280;32978;53.586;10.052;2023-04-02T17:03:40;102812.66;;;9.90;77.88
47240;BME280;32978;53.586;10.052;2023-04-02T17:08:55;102820.53;;;9.82;77.85
47240;BME280;32978;53.586;10.052;2023-04-02T17:14:05;102833.28;;;9.71;79.07
47240;BME280;32978;53.586;10.052;2023-04-02T17:19:09;102838.72;;;8.68;92.35
47240;BME280;32978;53.586;10.052;2023-04-02T17:29:14;102856.56;;;7.86;100.00
47240;BME280;32978;53.586;10.052;2023-04-02T17:34:14;102872.50;;;7.31;100.00
47240;BME280;32978;53.586;10.052;2023-04-02T17:39:47;102874.53;;;7.70;100.00
47240;BME280;32978;53.586;10.052;2023-04-02T17:50:32;102900.75;;;7.02;100.00
47240;BME280;32978;53.586;10.052;2023-04-02T18:00:56;102907.31;;;6.42;100.00
47240;BME280;32978;53.586;10.052;2023-04-02T18:06:08;102922.31;;;6.21;100.00
47240;BME280;32978;53.586;10.052;2023-04-02T18:11:39;102927.22;;;6.00;100.00
47240;BME280;32978;53.586;10.052;2023-04-02T18:17:34;102946.63;;;6.16;100.00
47240;BME280;32978;53.586;10.052;2023-04-02T18:27:43;102956.13;;;5.64;100.00
47240;BME280;32978;53.586;10.052;2023-04-02T18:38:14;102968.16;;;5.68;100.00
47240;BME280;32978;53.586;10.052;2023-04-02T18:43:23;102977.41;;;5.31;100.00
47240;BME280;32978;53.586;10.052;2023-04-02T18:53:43;102988.41;;;5.17;100.00
47240;BME280;32978;53.586;10.052;2023-04-02T19:03:59;102998.94;;;4.89;100.00
47240;BME280;32978;53.586;10.052;2023-04-02T19:09:00;103003.88;;;4.73;100.00
47240;BME280;32978;53.586;10.052;2023-04-02T19:13:59;103020.25;;;4.35;100.00
47240;BME280;32978;53.586;10.052;2023-04-02T19:19:21;103031.47;;;4.63;100.00
47240;BME280;32978;53.586;10.052;2023-04-02T19:29:59;103042.91;;;4.40;100.00
47240;BME280;32978;53.586;10.052;2023-04-02T19:35:49;103045.63;;;4.40;100.00
47240;BME280;32978;53.586;10.052;2023-04-02T19:40:38;103046.31;;;4.29;100.00
47240;BME280;32978;53.586;10.052;2023-04-02T19:45:39;103041.84;;;4.10;100.00
47240;BME280;32978;53.586;10.052;2023-04-02T19:50:37;103047.63;;;4.20;100.00
47240;BME280;32978;53.586;10.052;2023-04-02T19:55:34;103051.56;;;3.92;100.00
47240;BME280;32978;53.586;10.052;2023-04-02T20:00:31;103061.06;;;3.43;100.00
47240;BME280;32978;53.586;10.052;2023-04-02T20:05:28;103065.34;;;3.77;100.00
47240;BME280;32978;53.586;10.052;2023-04-02T20:10:24;103057.41;;;3.76;100.00
47240;BME280;32978;53.586;10.052;2023-04-02T20:15:21;103074.53;;;3.70;100.00
47240;BME280;32978;53.586;10.052;2023-04-02T20:20:18;103071.22;;;3.68;100.00
47240;BME280;32978;53.586;10.052;2023-04-02T20:25:14;103081.22;;;3.61;100.00
47240;BME280;32978;53.586;10.052;2023-04-02T20:30:11;103090.81;;;3.43;100.00
47240;BME280;32978;53.586;10.052;2023-04-02T20:35:08;103104.16;;;3.31;100.00
47240;BME280;32978;53.586;10.052;2023-04-02T20:40:05;103114.16;;;3.37;100.00
47240;BME280;32978;53.586;10.052;2023-04-02T20:45:02;103119.16;;;3.27;100.00
47240;BME280;32978;53.586;10.052;2023-04-02T20:50:00;103118.31;;;3.20;100.00
47240;BME280;32978;53.586;10.052;2023-04-02T20:54:57;103128.94;;;3.22;100.00
47240;BME280;32978;53.586;10.052;2023-04-02T20:59:53;103135.38;;;3.07;100.00
47240;BME280;32978;53.586;10.052;2023-04-02T21:04:50;103148.28;;;3.05;100.00
47240;BME280;32978;53.586;10.052;2023-04-02T21:09:46;103149.09;;;2.99;100.00
47240;BME280;32978;53.586;10.052;2023-04-02T21:14:43;103150.75;;;2.80;100.00
47240;BME280;32978;53.586;10.052;2023-04-02T21:19:39;103166.16;;;2.86;100.00
47240;BME280;32978;53.586;10.052;2023-04-02T21:24:36;103161.53;;;2.73;100.00
47240;BME280;32978;53.586;10.052;2023-04-02T21:29:32;103174.63;;;2.63;100.00
47240;BME280;32978;53.586;10.052;2023-04-02T21:34:29;103181.84;;;2.49;100.00
47240;BME280;32978;53.586;10.052;2023-04-02T21:39:25;103179.28;;;2.21;100.00
47240;BME280;32978;53.586;10.052;2023-04-02T21:44:22;103181.59;;;2.31;100.00
47240;BME280;32978;53.586;10.052;2023-04-02T21:49:20;103186.50;;;2.14;100.00
47240;BME280;32978;53.586;10.052;2023-04-02T21:54:18;103180.00;;;2.02;100.00
47240;BME280;32978;53.586;10.052;2023-04-02T21:59:15;103183.28;;;1.91;100.00
47240;BME280;32978;53.586;10.052;2023-04-02T22:04:20;103178.66;;;1.84;100.00
47240;BME280;32978;53.586;10.052;2023-04-02T22:09:20;103184.38;;;1.68;100.00
47240;BME280;32978;53.586;10.052;2023-04-02T22:14:19;103190.97;;;1.59;100.00
47240;BME280;32978;53.586;10.052;2023-04-02T22:19:17;103202.91;;;1.50;100.00
47240;BME280;32978;53.586;10.052;2023-04-02T22:24:17;103214.88;;;1.40;100.00
47240;BME280;32978;53.586;10.052;2023-04-02T22:29:14;103208.13;;;1.51;100.00
47240;BME280;32978;53.586;10.052;2023-04-02T22:34:11;103209.59;;;1.54;100.00
47240;BME280;32978;53.586;10.052;2023-04-02T22:39:08;103226.16;;;1.51;100.00
47240;BME280;32978;53.586;10.052;2023-04-02T22:44:12;103227.81;;;1.52;100.00
47240;BME280;32978;53.586;10.052;2023-04-02T22:49:09;103236.84;;;1.37;100.00
47240;BME280;32978;53.586;10.052;2023-04-02T22:54:06;103238.91;;;1.35;100.00
47240;BME280;32978;53.586;10.052;2023-04-02T22:59:03;103237.72;;;1.23;100.00
47240;BME280;32978;53.586;10.052;2023-04-02T23:04:00;103232.91;;;1.18;100.00
47240;BME280;32978;53.586;10.052;2023-04-02T23:08:58;103246.47;;;1.03;100.00
47240;BME280;32978;53.586;10.052;2023-04-02T23:13:56;103262.47;;;0.90;100.00
47240;BME280;32978;53.586;10.052;2023-04-02T23:18:53;103255.44;;;0.89;100.00
47240;BME280;32978;53.586;10.052;2023-04-02T23:23:50;103270.31;;;0.85;100.00
47240;BME280;32978;53.586;10.052;2023-04-02T23:28:48;103275.69;;;0.85;100.00
47240;BME280;32978;53.586;10.052;2023-04-02T23:33:45;103276.09;;;0.82;100.00
47240;BME280;32978;53.586;10.052;2023-04-02T23:38:41;103283.91;;;0.77;100.00
47240;BME280;32978;53.586;10.052;2023-04-02T23:43:38;103286.69;;;0.69;100.00
47240;BME280;32978;53.586;10.052;2023-04-02T23:48:35;103286.25;;;0.65;100.00
47240;BME280;32978;53.586;10.052;2023-04-02T23:53:33;103285.38;;;0.65;100.00
47240;BME280;32978;53.586;10.052;2023-04-02T23:58:29;103289.84;;;0.57;100.00
